createdAt,value
2023-10-28T00:00:11.470Z,11.55
2023-10-28T00:00:44.225Z,11.58
2023-10-28T00:01:17.259Z,11.58
2023-10-28T00:01:49.009Z,11.62
2023-10-28T00:02:21.563Z,11.59
2023-10-28T00:02:53.276Z,11.59
2023-10-28T00:03:28.183Z,11.59
2023-10-28T00:03:59.926Z,11.59
2023-10-28T00:04:33.292Z,11.58
2023-10-28T00:05:07.142Z,11.58
2023-10-28T00:05:39.012Z,11.59
2023-10-28T00:06:10.780Z,11.58
2023-10-28T00:06:42.481Z,11.58
2023-10-28T00:07:14.165Z,11.59
2023-10-28T00:07:45.871Z,11.60
2023-10-28T00:08:17.631Z,11.59
2023-10-28T00:08:49.290Z,11.58
2023-10-28T00:09:21.435Z,11.53
2023-10-28T00:09:53.097Z,11.56
2023-10-28T00:10:24.980Z,11.55
2023-10-28T00:10:56.904Z,11.58
2023-10-28T00:11:28.802Z,11.56
2023-10-28T00:12:00.436Z,11.59
2023-10-28T00:12:32.152Z,11.56
2023-10-28T00:13:05.953Z,11.58
2023-10-28T00:13:37.848Z,11.62
2023-10-28T00:14:09.566Z,11.65
2023-10-28T00:14:42.018Z,11.62
2023-10-28T00:15:15.031Z,11.65
2023-10-28T00:15:46.694Z,11.63
2023-10-28T00:16:18.453Z,11.65
2023-10-28T00:16:50.440Z,11.63
2023-10-28T00:17:22.232Z,11.62
2023-10-28T00:17:53.948Z,11.69
2023-10-28T00:18:25.718Z,11.67
2023-10-28T00:18:57.417Z,11.71
2023-10-28T00:19:29.838Z,11.71
2023-10-28T00:20:06.543Z,11.74
2023-10-28T00:20:38.555Z,11.71
2023-10-28T00:21:11.017Z,11.74
2023-10-28T00:21:42.996Z,11.81
2023-10-28T00:22:14.733Z,11.80
2023-10-28T00:22:47.707Z,11.80
2023-10-28T00:23:19.736Z,11.79
2023-10-28T00:23:51.385Z,11.74
2023-10-28T00:24:23.533Z,11.79
2023-10-28T00:24:55.334Z,11.79
2023-10-28T00:25:28.507Z,11.77
2023-10-28T00:26:04.869Z,11.80
2023-10-28T00:26:36.855Z,11.80
2023-10-28T00:27:09.615Z,11.81
2023-10-28T00:27:41.915Z,11.79
2023-10-28T00:28:13.623Z,11.80
2023-10-28T00:28:45.330Z,11.76
2023-10-28T00:29:17.079Z,11.79
2023-10-28T00:29:49.769Z,11.79
2023-10-28T00:30:24.787Z,11.81
2023-10-28T00:30:56.497Z,11.80
2023-10-28T00:31:29.759Z,11.77
2023-10-28T00:32:01.602Z,11.79
2023-10-28T00:32:33.517Z,11.77
2023-10-28T00:33:05.256Z,11.80
2023-10-28T00:33:36.918Z,11.79
2023-10-28T00:34:10.086Z,11.77
2023-10-28T00:34:42.214Z,11.73
2023-10-28T00:35:14.008Z,11.70
2023-10-28T00:35:45.652Z,11.74
2023-10-28T00:36:17.376Z,11.73
2023-10-28T00:36:49.070Z,11.73
2023-10-28T00:37:20.743Z,11.70
2023-10-28T00:37:52.893Z,11.69
2023-10-28T00:38:24.617Z,11.70
2023-10-28T00:38:56.588Z,11.65
2023-10-28T00:39:29.346Z,11.63
2023-10-28T00:40:01.073Z,11.62
2023-10-28T00:40:33.066Z,11.62
2023-10-28T00:41:05.005Z,11.59
2023-10-28T00:41:36.747Z,11.56
2023-10-28T00:42:08.610Z,11.58
2023-10-28T00:42:40.475Z,11.60
2023-10-28T00:43:12.364Z,11.59
2023-10-28T00:43:45.122Z,11.59
2023-10-28T00:44:17.058Z,11.56
2023-10-28T00:44:48.836Z,11.55
2023-10-28T00:45:20.695Z,11.52
2023-10-28T00:45:53.005Z,11.50
2023-10-28T00:46:24.846Z,11.50
2023-10-28T00:46:56.570Z,11.49
2023-10-28T00:47:28.660Z,11.47
2023-10-28T00:48:00.577Z,11.44
2023-10-28T00:48:32.340Z,11.40
2023-10-28T00:49:04.263Z,11.43
2023-10-28T00:49:37.237Z,11.43
2023-10-28T00:50:13.823Z,11.42
2023-10-28T00:50:46.207Z,11.35
2023-10-28T00:51:17.962Z,11.38
2023-10-28T00:51:50.278Z,11.38
2023-10-28T00:52:23.275Z,11.36
2023-10-28T00:52:56.014Z,11.33
2023-10-28T00:53:28.478Z,11.29
2023-10-28T00:54:00.873Z,11.29
2023-10-28T00:54:33.941Z,11.29
2023-10-28T00:55:05.909Z,11.28
2023-10-28T00:55:38.107Z,11.30
2023-10-28T00:56:13.139Z,11.29
2023-10-28T00:56:45.063Z,11.29
2023-10-28T00:57:17.721Z,11.30
2023-10-28T00:57:49.537Z,11.33
2023-10-28T00:58:23.899Z,11.32
2023-10-28T00:58:57.242Z,11.30
2023-10-28T00:59:29.409Z,11.30
2023-10-28T01:00:01.754Z,11.30
2023-10-28T01:00:33.752Z,11.28
2023-10-28T01:01:07.335Z,11.28
2023-10-28T01:01:39.709Z,11.32
2023-10-28T01:02:11.984Z,11.33
2023-10-28T01:02:45.846Z,11.33
2023-10-28T01:03:17.818Z,11.35
2023-10-28T01:03:49.539Z,11.33
2023-10-28T01:04:21.993Z,11.32
2023-10-28T01:04:53.811Z,11.30
2023-10-28T01:05:25.674Z,11.30
2023-10-28T01:05:57.955Z,11.33
2023-10-28T01:06:29.791Z,11.32
2023-10-28T01:07:02.172Z,11.32
2023-10-28T01:07:34.573Z,11.29
2023-10-28T01:08:06.298Z,11.26
2023-10-28T01:08:38.055Z,11.26
2023-10-28T01:09:09.893Z,11.30
2023-10-28T01:09:48.483Z,11.30
2023-10-28T01:10:32.501Z,11.30
2023-10-28T01:11:04.456Z,11.28
2023-10-28T01:11:40.487Z,11.26
2023-10-28T01:12:15.024Z,11.28
2023-10-28T01:12:48.405Z,11.28
2023-10-28T01:13:20.262Z,11.30
2023-10-28T01:13:51.944Z,11.30
2023-10-28T01:14:23.678Z,11.30
2023-10-28T01:14:55.358Z,11.23
2023-10-28T01:15:27.645Z,11.22
2023-10-28T01:16:01.105Z,11.18
2023-10-28T01:16:35.165Z,11.15
2023-10-28T01:17:07.086Z,11.14
2023-10-28T01:17:39.141Z,11.11
2023-10-28T01:18:11.603Z,11.11
2023-10-28T01:18:43.539Z,11.07
2023-10-28T01:19:15.245Z,11.09
2023-10-28T01:19:47.162Z,11.07
2023-10-28T01:20:19.490Z,11.05
2023-10-28T01:20:51.161Z,11.01
2023-10-28T01:21:22.858Z,11.00
2023-10-28T01:21:55.526Z,11.01
2023-10-28T01:22:27.915Z,11.02
2023-10-28T01:23:00.433Z,10.98
2023-10-28T01:23:32.791Z,10.98
2023-10-28T01:24:04.689Z,10.94
2023-10-28T01:24:37.065Z,10.98
2023-10-28T01:25:10.388Z,10.97
2023-10-28T01:25:42.265Z,10.94
2023-10-28T01:26:14.046Z,10.88
2023-10-28T01:26:45.712Z,10.82
2023-10-28T01:27:18.556Z,10.80
2023-10-28T01:27:50.775Z,10.78
2023-10-28T01:28:22.506Z,10.77
2023-10-28T01:28:56.333Z,10.77
2023-10-28T01:29:29.303Z,10.70
2023-10-28T01:30:01.249Z,10.70
2023-10-28T01:30:32.977Z,10.67
2023-10-28T01:31:05.328Z,10.64
2023-10-28T01:31:38.350Z,10.63
2023-10-28T01:32:10.561Z,10.60
2023-10-28T01:32:43.090Z,10.57
2023-10-28T01:33:14.915Z,10.56
2023-10-28T01:33:46.916Z,10.49
2023-10-28T01:34:18.692Z,10.43
2023-10-28T01:34:54.159Z,10.43
2023-10-28T01:35:25.853Z,10.46
2023-10-28T01:35:57.581Z,10.42
2023-10-28T01:36:30.483Z,10.43
2023-10-28T01:37:03.956Z,10.44
2023-10-28T01:37:35.732Z,10.46
2023-10-28T01:38:07.508Z,10.43
2023-10-28T01:38:39.268Z,10.42
2023-10-28T01:39:13.551Z,10.43
2023-10-28T01:39:49.833Z,10.42
2023-10-28T01:40:21.583Z,10.43
2023-10-28T01:40:54.020Z,10.42
2023-10-28T01:41:25.706Z,10.42
2023-10-28T01:41:57.415Z,10.42
2023-10-28T01:42:29.058Z,10.42
2023-10-28T01:43:01.091Z,10.40
2023-10-28T01:43:32.801Z,10.42
2023-10-28T01:44:04.881Z,10.37
2023-10-28T01:44:38.127Z,10.39
2023-10-28T01:45:10.945Z,10.42
2023-10-28T01:45:42.749Z,10.37
2023-10-28T01:46:14.570Z,10.39
2023-10-28T01:46:48.107Z,10.33
2023-10-28T01:47:19.883Z,10.29
2023-10-28T01:47:51.911Z,10.23
2023-10-28T01:48:24.205Z,10.23
2023-10-28T01:48:55.828Z,10.19
2023-10-28T01:49:27.471Z,10.22
2023-10-28T01:50:00.292Z,10.16
2023-10-28T01:50:32.103Z,10.22
2023-10-28T01:51:03.996Z,10.20
2023-10-28T01:51:35.866Z,10.22
2023-10-28T01:52:10.519Z,10.22
2023-10-28T01:52:43.805Z,10.20
2023-10-28T01:53:16.051Z,10.20
2023-10-28T01:53:47.743Z,10.26
2023-10-28T01:54:19.532Z,10.23
2023-10-28T01:54:52.034Z,10.17
2023-10-28T01:55:23.746Z,10.13
2023-10-28T01:55:55.942Z,10.13
2023-10-28T01:56:29.426Z,10.10
2023-10-28T01:57:02.091Z,10.19
2023-10-28T01:57:33.728Z,10.14
2023-10-28T01:58:05.401Z,10.03
2023-10-28T01:58:37.138Z,10.02
2023-10-28T01:59:08.895Z,9.96
2023-10-28T01:59:40.645Z,9.93
2023-10-28T02:00:15.363Z,9.95
2023-10-28T02:00:47.040Z,9.93
2023-10-28T02:01:18.718Z,9.92
2023-10-28T02:01:50.484Z,9.93
2023-10-28T02:02:22.181Z,9.91
2023-10-28T02:02:56.328Z,9.91
2023-10-28T02:03:28.207Z,9.92
2023-10-28T02:03:59.993Z,9.96
2023-10-28T02:04:32.956Z,9.96
2023-10-28T02:05:05.048Z,9.95
2023-10-28T02:05:36.727Z,9.98
2023-10-28T02:06:08.577Z,9.95
2023-10-28T02:06:40.207Z,9.96
2023-10-28T02:07:11.865Z,9.95
2023-10-28T02:07:43.880Z,9.96
2023-10-28T02:08:15.575Z,9.92
2023-10-28T02:08:47.217Z,9.92
2023-10-28T02:09:18.955Z,9.93
2023-10-28T02:09:51.002Z,9.89
2023-10-28T02:10:22.771Z,9.91
2023-10-28T02:10:54.491Z,9.89
2023-10-28T02:11:26.567Z,9.89
2023-10-28T02:11:58.290Z,9.91
2023-10-28T02:12:30.127Z,9.89
2023-10-28T02:13:01.804Z,9.92
2023-10-28T02:13:33.674Z,9.96
2023-10-28T02:14:05.366Z,9.99
2023-10-28T02:14:37.432Z,9.92
2023-10-28T02:15:10.144Z,9.84
2023-10-28T02:15:44.267Z,9.86
2023-10-28T02:16:16.001Z,9.88
2023-10-28T02:16:47.728Z,9.91
2023-10-28T02:17:20.361Z,9.91
2023-10-28T02:17:53.687Z,9.92
2023-10-28T02:18:25.507Z,9.82
2023-10-28T02:18:57.250Z,9.81
2023-10-28T02:19:28.885Z,9.85
2023-10-28T02:20:00.595Z,9.85
2023-10-28T02:20:34.354Z,9.88
2023-10-28T02:21:06.028Z,9.81
2023-10-28T02:21:37.780Z,9.72
2023-10-28T02:22:14.057Z,9.67
2023-10-28T02:22:45.960Z,9.64
2023-10-28T02:23:17.660Z,9.65
2023-10-28T02:23:49.366Z,9.65
2023-10-28T02:24:21.040Z,9.62
2023-10-28T02:24:52.776Z,9.62
2023-10-28T02:25:25.114Z,9.62
2023-10-28T02:25:56.967Z,9.55
2023-10-28T02:26:28.592Z,9.57
2023-10-28T02:27:00.412Z,9.50
2023-10-28T02:27:32.123Z,9.51
2023-10-28T02:28:04.241Z,9.50
2023-10-28T02:28:35.930Z,9.57
2023-10-28T02:29:08.326Z,9.57
2023-10-28T02:29:40.140Z,9.57
2023-10-28T02:30:13.258Z,9.50
2023-10-28T02:30:46.028Z,9.51
2023-10-28T02:31:17.710Z,9.50
2023-10-28T02:31:49.965Z,9.54
2023-10-28T02:32:21.838Z,9.50
2023-10-28T02:32:55.509Z,9.54
2023-10-28T02:33:27.331Z,9.52
2023-10-28T02:33:59.112Z,9.57
2023-10-28T02:34:30.820Z,9.57
2023-10-28T02:35:02.830Z,9.54
2023-10-28T02:35:37.559Z,9.57
2023-10-28T02:36:09.672Z,9.61
2023-10-28T02:36:41.350Z,9.67
2023-10-28T02:37:15.680Z,9.59
2023-10-28T02:37:47.865Z,9.58
2023-10-28T02:38:20.544Z,9.54
2023-10-28T02:38:52.348Z,9.55
2023-10-28T02:39:24.033Z,9.47
2023-10-28T02:39:56.019Z,9.50
2023-10-28T02:40:27.878Z,9.44
2023-10-28T02:41:00.069Z,9.43
2023-10-28T02:41:31.854Z,9.40
2023-10-28T02:42:03.668Z,9.40
2023-10-28T02:42:35.891Z,9.37
2023-10-28T02:43:07.580Z,9.41
2023-10-28T02:43:40.901Z,9.44
2023-10-28T02:44:12.651Z,9.40
2023-10-28T02:44:44.337Z,9.35
2023-10-28T02:45:16.122Z,9.30
2023-10-28T02:45:47.853Z,9.26
2023-10-28T02:46:26.277Z,9.26
2023-10-28T02:46:58.081Z,9.24
2023-10-28T02:47:32.682Z,9.26
2023-10-28T02:48:04.712Z,9.28
2023-10-28T02:48:36.464Z,9.31
2023-10-28T02:49:08.176Z,9.40
2023-10-28T02:49:39.963Z,9.31
2023-10-28T02:50:12.524Z,9.31
2023-10-28T02:50:44.698Z,9.31
2023-10-28T02:51:16.458Z,9.31
2023-10-28T02:51:48.284Z,9.33
2023-10-28T02:52:19.911Z,9.35
2023-10-28T02:52:51.704Z,9.37
2023-10-28T02:53:23.516Z,9.30
2023-10-28T02:53:55.181Z,9.33
2023-10-28T02:54:26.939Z,9.31
2023-10-28T02:54:58.787Z,9.34
2023-10-28T02:55:30.494Z,9.33
2023-10-28T02:56:05.587Z,9.30
2023-10-28T02:56:37.631Z,9.35
2023-10-28T02:57:09.601Z,9.38
2023-10-28T02:57:41.897Z,9.38
2023-10-28T02:58:13.652Z,9.41
2023-10-28T02:58:45.308Z,9.35
2023-10-28T02:59:17.053Z,9.34
2023-10-28T02:59:48.768Z,9.27
2023-10-28T03:00:20.519Z,9.28
2023-10-28T03:00:52.166Z,9.28
2023-10-28T03:01:24.529Z,9.33
2023-10-28T03:01:57.092Z,9.38
2023-10-28T03:02:29.024Z,9.35
2023-10-28T03:03:01.300Z,9.31
2023-10-28T03:03:33.425Z,9.33
2023-10-28T03:04:05.349Z,9.40
2023-10-28T03:04:37.058Z,9.44
2023-10-28T03:05:09.212Z,9.45
2023-10-28T03:05:40.894Z,9.47
2023-10-28T03:06:13.101Z,9.48
2023-10-28T03:06:44.843Z,9.45
2023-10-28T03:07:16.578Z,9.43
2023-10-28T03:07:48.285Z,9.40
2023-10-28T03:08:20.539Z,9.43
2023-10-28T03:08:52.249Z,9.43
2023-10-28T03:09:24.013Z,9.38
2023-10-28T03:09:55.747Z,9.40
2023-10-28T03:10:27.442Z,9.40
2023-10-28T03:10:59.163Z,9.44
2023-10-28T03:11:30.926Z,9.44
2023-10-28T03:12:02.858Z,9.43
2023-10-28T03:12:34.551Z,9.41
2023-10-28T03:13:06.239Z,9.47
2023-10-28T03:13:38.044Z,9.44
2023-10-28T03:14:09.737Z,9.38
2023-10-28T03:14:41.596Z,9.34
2023-10-28T03:15:13.951Z,9.30
2023-10-28T03:15:48.002Z,9.27
2023-10-28T03:16:20.063Z,9.26
2023-10-28T03:16:52.429Z,9.30
2023-10-28T03:17:24.147Z,9.33
2023-10-28T03:17:55.854Z,9.35
2023-10-28T03:18:27.557Z,9.40
2023-10-28T03:18:59.296Z,9.45
2023-10-28T03:19:31.008Z,9.47
2023-10-28T03:20:02.781Z,9.47
2023-10-28T03:20:34.583Z,9.47
2023-10-28T03:21:07.476Z,9.50
2023-10-28T03:21:40.404Z,9.52
2023-10-28T03:22:12.084Z,9.57
2023-10-28T03:22:43.851Z,9.57
2023-10-28T03:23:16.492Z,9.57
2023-10-28T03:23:48.202Z,9.59
2023-10-28T03:24:19.883Z,9.62
2023-10-28T03:24:51.535Z,9.64
2023-10-28T03:25:23.218Z,9.68
2023-10-28T03:25:55.108Z,9.72
2023-10-28T03:26:26.796Z,9.65
2023-10-28T03:26:58.435Z,9.70
2023-10-28T03:27:30.660Z,9.74
2023-10-28T03:28:02.395Z,9.68
2023-10-28T03:28:34.088Z,9.64
2023-10-28T03:29:05.859Z,9.61
2023-10-28T03:29:37.557Z,9.58
2023-10-28T03:30:09.711Z,9.48
2023-10-28T03:30:41.702Z,9.50
2023-10-28T03:31:14.033Z,9.50
2023-10-28T03:31:45.969Z,9.43
2023-10-28T03:32:17.910Z,9.44
2023-10-28T03:32:50.339Z,9.44
2023-10-28T03:33:23.375Z,9.40
2023-10-28T03:33:55.592Z,9.43
2023-10-28T03:34:27.407Z,9.40
2023-10-28T03:34:59.095Z,9.37
2023-10-28T03:35:31.041Z,9.37
2023-10-28T03:36:02.797Z,9.48
2023-10-28T03:36:34.543Z,9.52
2023-10-28T03:37:06.242Z,9.51
2023-10-28T03:37:38.922Z,9.51
2023-10-28T03:38:10.752Z,9.51
2023-10-28T03:38:42.644Z,9.51
2023-10-28T03:39:16.483Z,9.51
2023-10-28T03:39:48.360Z,9.52
2023-10-28T03:40:20.172Z,9.54
2023-10-28T03:40:52.020Z,9.55
2023-10-28T03:41:24.206Z,9.58
2023-10-28T03:41:55.935Z,9.57
2023-10-28T03:42:28.584Z,9.58
2023-10-28T03:43:00.274Z,9.51
2023-10-28T03:43:32.254Z,9.55
2023-10-28T03:44:04.028Z,9.54
2023-10-28T03:44:35.848Z,9.52
2023-10-28T03:45:10.581Z,9.61
2023-10-28T03:45:42.310Z,9.59
2023-10-28T03:46:19.647Z,9.58
2023-10-28T03:46:51.583Z,9.54
2023-10-28T03:47:23.298Z,9.52
2023-10-28T03:47:55.199Z,9.48
2023-10-28T03:48:26.996Z,9.44
2023-10-28T03:49:00.171Z,9.43
2023-10-28T03:49:32.115Z,9.43
2023-10-28T03:50:04.258Z,9.47
2023-10-28T03:50:36.640Z,9.44
2023-10-28T03:51:08.305Z,9.47
2023-10-28T03:51:39.937Z,9.50
2023-10-28T03:52:11.655Z,9.44
2023-10-28T03:52:43.445Z,9.44
2023-10-28T03:53:15.419Z,9.47
2023-10-28T03:53:47.158Z,9.45
2023-10-28T03:54:18.879Z,9.44
2023-10-28T03:54:51.261Z,9.41
2023-10-28T03:55:24.404Z,9.40
2023-10-28T03:55:56.149Z,9.43
2023-10-28T03:56:28.170Z,9.40
2023-10-28T03:57:00.455Z,9.38
2023-10-28T03:57:32.145Z,9.33
2023-10-28T03:58:04.074Z,9.33
2023-10-28T03:58:35.897Z,9.33
2023-10-28T03:59:07.615Z,9.26
2023-10-28T03:59:39.433Z,9.23
2023-10-28T04:00:12.751Z,9.26
2023-10-28T04:00:44.518Z,9.24
2023-10-28T04:01:17.259Z,9.22
2023-10-28T04:01:49.041Z,9.26
2023-10-28T04:02:20.762Z,9.26
2023-10-28T04:02:53.057Z,9.26
2023-10-28T04:03:25.308Z,9.26
2023-10-28T04:03:57.308Z,9.24
2023-10-28T04:04:29.305Z,9.20
2023-10-28T04:05:01.089Z,9.14
2023-10-28T04:05:33.080Z,9.14
2023-10-28T04:06:07.528Z,9.13
2023-10-28T04:06:39.672Z,9.14
2023-10-28T04:07:11.487Z,9.16
2023-10-28T04:07:43.192Z,9.12
2023-10-28T04:08:15.095Z,9.16
2023-10-28T04:08:47.137Z,9.14
2023-10-28T04:09:19.937Z,9.13
2023-10-28T04:09:51.636Z,9.13
2023-10-28T04:10:23.479Z,9.12
2023-10-28T04:10:55.191Z,9.09
2023-10-28T04:11:26.952Z,9.07
2023-10-28T04:12:01.350Z,9.13
2023-10-28T04:12:33.582Z,9.07
2023-10-28T04:13:05.438Z,9.04
2023-10-28T04:13:37.226Z,9.04
2023-10-28T04:14:09.231Z,9.03
2023-10-28T04:14:41.225Z,9.04
2023-10-28T04:15:14.364Z,8.99
2023-10-28T04:15:47.797Z,9.02
2023-10-28T04:16:19.827Z,9.06
2023-10-28T04:16:52.078Z,9.06
2023-10-28T04:17:25.755Z,9.07
2023-10-28T04:17:57.754Z,9.07
2023-10-28T04:18:30.310Z,9.09
2023-10-28T04:19:02.117Z,9.16
2023-10-28T04:19:34.471Z,9.16
2023-10-28T04:20:07.510Z,9.24
2023-10-28T04:20:40.682Z,9.20
2023-10-28T04:21:12.398Z,9.20
2023-10-28T04:21:44.086Z,9.24
2023-10-28T04:22:16.440Z,9.20
2023-10-28T04:22:48.225Z,9.22
2023-10-28T04:23:20.007Z,9.22
2023-10-28T04:23:52.665Z,9.23
2023-10-28T04:24:25.343Z,9.16
2023-10-28T04:24:57.098Z,9.12
2023-10-28T04:25:28.736Z,9.17
2023-10-28T04:26:00.548Z,9.16
2023-10-28T04:26:32.237Z,9.13
2023-10-28T04:27:04.049Z,9.17
2023-10-28T04:27:35.952Z,9.17
2023-10-28T04:28:08.673Z,9.23
2023-10-28T04:28:40.294Z,9.17
2023-10-28T04:29:12.191Z,9.16
2023-10-28T04:29:43.875Z,9.09
2023-10-28T04:30:15.537Z,8.97
2023-10-28T04:30:59.949Z,8.99
2023-10-28T04:31:31.676Z,9.02
2023-10-28T04:32:03.485Z,9.04
2023-10-28T04:32:35.264Z,9.09
2023-10-28T04:33:07.017Z,9.12
2023-10-28T04:33:38.783Z,9.06
2023-10-28T04:34:10.470Z,9.06
2023-10-28T04:34:54.550Z,9.02
2023-10-28T04:35:29.213Z,9.06
2023-10-28T04:36:01.177Z,9.03
2023-10-28T04:36:32.970Z,9.02
2023-10-28T04:37:04.795Z,9.00
2023-10-28T04:37:36.490Z,9.06
2023-10-28T04:38:08.225Z,9.03
2023-10-28T04:38:41.578Z,9.03
2023-10-28T04:39:13.273Z,8.95
2023-10-28T04:39:45.163Z,9.00
2023-10-28T04:40:17.165Z,9.03
2023-10-28T04:40:51.282Z,9.06
2023-10-28T04:41:23.090Z,9.12
2023-10-28T04:41:54.971Z,9.13
2023-10-28T04:42:26.670Z,9.13
2023-10-28T04:43:02.404Z,9.04
2023-10-28T04:43:34.119Z,9.04
2023-10-28T04:44:06.167Z,9.07
2023-10-28T04:44:38.027Z,8.96
2023-10-28T04:45:11.435Z,8.99
2023-10-28T04:45:43.949Z,9.06
2023-10-28T04:46:16.846Z,9.03
2023-10-28T04:46:48.675Z,8.99
2023-10-28T04:47:20.327Z,8.99
2023-10-28T04:47:52.210Z,8.95
2023-10-28T04:48:26.873Z,9.02
2023-10-28T04:48:58.996Z,8.89
2023-10-28T04:49:30.909Z,8.86
2023-10-28T04:50:02.845Z,8.79
2023-10-28T04:50:34.625Z,8.75
2023-10-28T04:51:06.784Z,8.79
2023-10-28T04:51:39.239Z,8.79
2023-10-28T04:52:10.940Z,8.68
2023-10-28T04:52:43.265Z,8.69
2023-10-28T04:53:14.983Z,8.75
2023-10-28T04:53:46.774Z,8.65
2023-10-28T04:54:18.917Z,8.65
2023-10-28T04:54:50.792Z,8.72
2023-10-28T04:55:23.295Z,8.65
2023-10-28T04:55:56.350Z,8.59
2023-10-28T04:56:28.742Z,8.66
2023-10-28T04:57:01.352Z,8.65
2023-10-28T04:57:33.116Z,8.58
2023-10-28T04:58:06.789Z,8.54
2023-10-28T04:58:39.396Z,8.56
2023-10-28T04:59:11.537Z,8.56
2023-10-28T04:59:43.293Z,8.54
2023-10-28T05:00:15.289Z,8.52
2023-10-28T05:00:47.013Z,8.54
2023-10-28T05:01:18.790Z,8.54
2023-10-28T05:01:51.823Z,8.55
2023-10-28T05:02:23.939Z,8.46
2023-10-28T05:02:55.694Z,8.44
2023-10-28T05:03:27.405Z,8.40
2023-10-28T05:03:59.384Z,8.42
2023-10-28T05:04:31.049Z,8.49
2023-10-28T05:05:02.765Z,8.48
2023-10-28T05:05:34.487Z,8.38
2023-10-28T05:06:06.494Z,8.33
2023-10-28T05:06:38.394Z,8.40
2023-10-28T05:07:10.072Z,8.46
2023-10-28T05:07:42.266Z,8.51
2023-10-28T05:08:15.172Z,8.48
2023-10-28T05:08:48.976Z,8.44
2023-10-28T05:09:24.325Z,8.42
2023-10-28T05:09:56.495Z,8.44
2023-10-28T05:10:30.803Z,8.44
2023-10-28T05:11:04.697Z,8.42
2023-10-28T05:11:36.405Z,8.40
2023-10-28T05:12:08.322Z,8.41
2023-10-28T05:12:41.568Z,8.46
2023-10-28T05:13:13.486Z,8.49
2023-10-28T05:13:45.159Z,8.51
2023-10-28T05:14:16.859Z,8.49
2023-10-28T05:14:48.719Z,8.40
2023-10-28T05:15:20.581Z,8.38
2023-10-28T05:15:52.341Z,8.24
2023-10-28T05:16:24.821Z,8.28
2023-10-28T05:16:56.715Z,8.30
2023-10-28T05:17:28.477Z,8.23
2023-10-28T05:18:00.235Z,8.30
2023-10-28T05:18:33.035Z,8.28
2023-10-28T05:19:04.984Z,8.34
2023-10-28T05:19:36.611Z,8.25
2023-10-28T05:20:09.806Z,8.27
2023-10-28T05:20:41.708Z,8.21
2023-10-28T05:21:13.370Z,8.30
2023-10-28T05:21:45.040Z,8.34
2023-10-28T05:22:18.518Z,8.31
2023-10-28T05:22:50.283Z,8.35
2023-10-28T05:23:23.591Z,8.38
2023-10-28T05:23:55.418Z,8.40
2023-10-28T05:24:27.102Z,8.35
2023-10-28T05:24:58.760Z,8.34
2023-10-28T05:25:30.484Z,8.33
2023-10-28T05:26:02.249Z,8.18
2023-10-28T05:26:34.065Z,8.08
2023-10-28T05:27:05.874Z,8.00
2023-10-28T05:27:37.680Z,8.10
2023-10-28T05:28:09.464Z,8.10
2023-10-28T05:28:41.191Z,8.06
2023-10-28T05:29:12.950Z,8.07
2023-10-28T05:29:44.684Z,8.16
2023-10-28T05:30:16.483Z,8.18
2023-10-28T05:30:48.280Z,8.23
2023-10-28T05:31:19.932Z,8.23
2023-10-28T05:31:51.731Z,8.27
2023-10-28T05:32:23.492Z,8.31
2023-10-28T05:32:55.178Z,8.28
2023-10-28T05:33:26.828Z,8.31
2023-10-28T05:33:58.478Z,8.28
2023-10-28T05:34:30.179Z,8.21
2023-10-28T05:35:03.569Z,8.30
2023-10-28T05:35:35.258Z,8.33
2023-10-28T05:36:07.552Z,8.38
2023-10-28T05:36:39.344Z,8.45
2023-10-28T05:37:10.959Z,8.49
2023-10-28T05:37:42.654Z,8.46
2023-10-28T05:38:14.341Z,8.52
2023-10-28T05:38:46.112Z,8.56
2023-10-28T05:39:17.863Z,8.64
2023-10-28T05:39:49.653Z,8.64
2023-10-28T05:40:22.203Z,8.65
2023-10-28T05:40:56.016Z,8.68
2023-10-28T05:41:27.722Z,8.65
2023-10-28T05:41:59.574Z,8.72
2023-10-28T05:42:31.239Z,8.77
2023-10-28T05:43:02.931Z,8.79
2023-10-28T05:43:34.592Z,8.79
2023-10-28T05:44:06.335Z,8.79
2023-10-28T05:44:38.670Z,8.82
2023-10-28T05:45:11.678Z,8.82
2023-10-28T05:45:43.433Z,8.89
2023-10-28T05:46:15.242Z,8.92
2023-10-28T05:46:47.127Z,8.96
2023-10-28T05:47:18.891Z,8.99
2023-10-28T05:47:50.765Z,9.00
2023-10-28T05:48:22.523Z,9.03
2023-10-28T05:48:54.182Z,9.00
2023-10-28T05:49:26.105Z,9.03
2023-10-28T05:49:58.686Z,9.02
2023-10-28T05:50:30.364Z,9.12
2023-10-28T05:51:03.912Z,9.06
2023-10-28T05:51:37.950Z,9.13
2023-10-28T05:52:10.653Z,9.19
2023-10-28T05:52:42.460Z,9.16
2023-10-28T05:53:14.158Z,9.22
2023-10-28T05:53:45.917Z,9.22
2023-10-28T05:54:17.686Z,9.22
2023-10-28T05:54:49.921Z,9.23
2023-10-28T05:55:21.610Z,9.19
2023-10-28T05:55:53.692Z,9.19
2023-10-28T05:56:26.287Z,9.24
2023-10-28T05:56:58.892Z,9.22
2023-10-28T05:57:30.696Z,9.24
2023-10-28T05:58:02.410Z,9.22
2023-10-28T05:58:34.110Z,9.16
2023-10-28T05:59:05.757Z,9.19
2023-10-28T05:59:37.516Z,9.14
2023-10-28T06:00:12.595Z,9.12
2023-10-28T06:00:44.304Z,9.13
2023-10-28T06:01:15.948Z,9.10
2023-10-28T06:01:47.749Z,9.17
2023-10-28T06:02:19.538Z,9.16
2023-10-28T06:02:51.341Z,9.17
2023-10-28T06:03:22.973Z,9.20
2023-10-28T06:03:54.688Z,9.20
2023-10-28T06:04:26.506Z,9.23
2023-10-28T06:04:58.184Z,9.13
2023-10-28T06:05:29.891Z,9.07
2023-10-28T06:06:01.781Z,9.16
2023-10-28T06:06:33.593Z,9.17
2023-10-28T06:07:05.375Z,9.19
2023-10-28T06:07:37.069Z,9.23
2023-10-28T06:08:09.573Z,9.10
2023-10-28T06:08:41.350Z,9.13
2023-10-28T06:09:14.886Z,9.13
2023-10-28T06:09:49.220Z,9.09
2023-10-28T06:10:21.006Z,9.07
2023-10-28T06:10:52.741Z,9.04
2023-10-28T06:11:24.982Z,9.09
2023-10-28T06:11:57.936Z,9.12
2023-10-28T06:12:29.594Z,9.03
2023-10-28T06:13:01.492Z,9.09
2023-10-28T06:13:33.245Z,9.12
2023-10-28T06:14:05.145Z,9.19
2023-10-28T06:14:36.854Z,9.24
2023-10-28T06:15:09.532Z,9.23
2023-10-28T06:15:42.783Z,9.19
2023-10-28T06:16:14.589Z,9.20
2023-10-28T06:16:47.557Z,9.19
2023-10-28T06:17:19.455Z,9.23
2023-10-28T06:17:51.276Z,9.31
2023-10-28T06:18:23.032Z,9.33
2023-10-28T06:18:54.728Z,9.30
2023-10-28T06:19:26.491Z,9.33
2023-10-28T06:19:58.288Z,9.37
2023-10-28T06:20:31.723Z,9.52
2023-10-28T06:21:04.469Z,9.55
2023-10-28T06:21:36.412Z,9.61
2023-10-28T06:22:08.950Z,9.64
2023-10-28T06:22:40.825Z,9.68
2023-10-28T06:23:12.934Z,9.71
2023-10-28T06:23:44.723Z,9.65
2023-10-28T06:24:16.402Z,9.65
2023-10-28T06:24:48.074Z,9.70
2023-10-28T06:25:19.788Z,9.67
2023-10-28T06:25:51.527Z,9.68
2023-10-28T06:26:23.282Z,9.71
2023-10-28T06:26:56.218Z,9.74
2023-10-28T06:27:28.068Z,9.79
2023-10-28T06:27:59.724Z,9.85
2023-10-28T06:28:31.467Z,9.93
2023-10-28T06:29:03.819Z,9.93
2023-10-28T06:29:35.781Z,9.98
2023-10-28T06:30:08.828Z,10.06
2023-10-28T06:30:50.495Z,10.10
2023-10-28T06:31:22.171Z,10.17
2023-10-28T06:31:53.916Z,10.16
2023-10-28T06:32:25.830Z,10.20
2023-10-28T06:32:57.614Z,10.17
2023-10-28T06:33:29.464Z,10.20
2023-10-28T06:34:02.084Z,10.24
2023-10-28T06:34:33.997Z,10.28
2023-10-28T06:35:06.486Z,10.34
2023-10-28T06:35:38.195Z,10.34
2023-10-28T06:36:10.152Z,10.34
2023-10-28T06:36:41.832Z,10.37
2023-10-28T06:37:13.548Z,10.43
2023-10-28T06:37:45.198Z,10.43
2023-10-28T06:38:18.967Z,10.46
2023-10-28T06:38:50.988Z,10.47
2023-10-28T06:39:22.930Z,10.51
2023-10-28T06:39:54.610Z,10.53
2023-10-28T06:40:26.749Z,10.51
2023-10-28T06:41:01.207Z,10.50
2023-10-28T06:41:33.078Z,10.54
2023-10-28T06:42:05.453Z,10.60
2023-10-28T06:42:38.525Z,10.67
2023-10-28T06:43:10.477Z,10.67
2023-10-28T06:43:42.115Z,10.78
2023-10-28T06:44:13.765Z,10.82
2023-10-28T06:44:45.473Z,10.88
2023-10-28T06:45:18.964Z,10.95
2023-10-28T06:45:50.806Z,10.95
2023-10-28T06:46:22.543Z,10.92
2023-10-28T06:46:54.480Z,10.90
2023-10-28T06:47:26.212Z,10.97
2023-10-28T06:47:58.034Z,10.97
2023-10-28T06:48:29.756Z,11.04
2023-10-28T06:49:01.438Z,11.08
2023-10-28T06:49:33.126Z,11.09
2023-10-28T06:50:08.111Z,11.15
2023-10-28T06:50:40.076Z,11.18
2023-10-28T06:51:14.027Z,11.22
2023-10-28T06:51:46.557Z,11.28
2023-10-28T06:52:18.255Z,11.30
2023-10-28T06:52:51.879Z,11.29
2023-10-28T06:53:25.025Z,11.29
2023-10-28T06:53:56.720Z,11.32
2023-10-28T06:54:28.361Z,11.39
2023-10-28T06:55:03.783Z,11.44
2023-10-28T06:55:35.713Z,11.47
2023-10-28T06:56:08.433Z,11.50
2023-10-28T06:56:40.120Z,11.49
2023-10-28T06:57:11.767Z,11.50
2023-10-28T06:57:43.481Z,11.53
2023-10-28T06:58:16.975Z,11.53
2023-10-28T06:58:48.953Z,11.56
2023-10-28T06:59:20.886Z,11.55
2023-10-28T06:59:52.664Z,11.52
2023-10-28T07:00:30.376Z,11.59
2023-10-28T07:01:03.995Z,11.59
2023-10-28T07:01:35.828Z,11.53
2023-10-28T07:02:09.548Z,11.63
2023-10-28T07:02:42.182Z,11.67
2023-10-28T07:03:15.816Z,11.66
2023-10-28T07:03:51.283Z,11.80
2023-10-28T07:04:23.612Z,11.81